| time (UTC) | temp C | wind direction | speed KPH | gust KPH | rain 1hr cm | rain 24hr cm | rain mn cm | humidity % | barometer mb |
| 20260906225016 | 26 | 253 | 1.6 | 4.8 | 0.00 | 0.00 | 0.00 | 43 | 1011.6 |
| 20260906224016 | 25 | 253 | 1.6 | 3.2 | 0.00 | 0.00 | 0.00 | 44 | 1011.6 |
| 20260906223017 | 25 | 264 | 4.8 | 4.8 | 0.00 | 0.00 | 0.00 | 44 | 1011.7 |
| 20260906222016 | 26 | 0.0 | 1.6 | 0.00 | 0.00 | 0.00 | 44 | 1011.6 | |
| 20260906221016 | 25 | 256 | 1.6 | 1.6 | 0.00 | 0.00 | 0.00 | 47 | 1011.9 |
| 20260906220016 | 24 | 250 | 0.0 | 3.2 | 0.00 | 0.00 | 0.00 | 48 | 1012.3 |
| 20260906215016 | 25 | 251 | 1.6 | 4.8 | 0.00 | 0.00 | 0.00 | 46 | 1012.7 |
| 20260906214056 | 25 | 236 | 1.6 | 6.4 | 0.00 | 0.00 | 0.00 | 46 | 1012.6 |
| 20260906213036 | 24 | 63 | 1.6 | 4.8 | 0.00 | 0.00 | 0.00 | 48 | 1012.7 |
| 20260906212016 | 24 | 275 | 1.6 | 4.8 | 0.00 | 0.00 | 0.00 | 46 | 1012.9 |
| 20260906211017 | 24 | 260 | 4.8 | 8.0 | 0.00 | 0.00 | 0.00 | 47 | 1013.1 |
| 20260906210036 | 24 | 264 | 3.2 | 4.8 | 0.00 | 0.00 | 0.00 | 48 | 1013.3 |
| 20260906205016 | 23 | 245 | 3.2 | 6.4 | 0.00 | 0.00 | 0.00 | 49 | 1013.4 |
| 20260906204036 | 23 | 267 | 3.2 | 8.0 | 0.00 | 0.00 | 0.00 | 49 | 1013.5 |
| 20260906203017 | 23 | 259 | 3.2 | 6.4 | 0.00 | 0.00 | 0.00 | 48 | 1013.7 |
| 20260906202016 | 22 | 329 | 0.0 | 4.8 | 0.00 | 0.00 | 0.00 | 51 | 1013.7 |
| 20260906201016 | 22 | 246 | 3.2 | 8.0 | 0.00 | 0.00 | 0.00 | 50 | 1013.9 |
| 20260906200016 | 23 | 247 | 1.6 | 6.4 | 0.00 | 0.00 | 0.00 | 51 | 1014.1 |
| 20260906195016 | 23 | 240 | 1.6 | 6.4 | 0.00 | 0.00 | 0.00 | 50 | 1014.1 |
| 20260906194015 | 22 | 247 | 4.8 | 8.0 | 0.00 | 0.00 | 0.00 | 51 | 1014.2 |
| 20260906193015 | 22 | 32 | 3.2 | 4.8 | 0.00 | 0.00 | 0.00 | 51 | 1014.4 |
| 20260906192016 | 22 | 282 | 0.0 | 6.4 | 0.00 | 0.00 | 0.00 | 51 | 1014.4 |
| 20260906191016 | 22 | 260 | 3.2 | 6.4 | 0.00 | 0.00 | 0.00 | 51 | 1014.8 |
| 20260906190036 | 22 | 229 | 3.2 | 3.2 | 0.00 | 0.00 | 0.00 | 51 | 1014.9 |
| 20260906185017 | 21 | 268 | 1.6 | 3.2 | 0.00 | 0.00 | 0.00 | 55 | 1015.1 |
| 20260906184016 | 21 | 270 | 3.2 | 8.0 | 0.00 | 0.00 | 0.00 | 53 | 1015.3 |
| 20260906183015 | 21 | 256 | 3.2 | 8.0 | 0.00 | 0.00 | 0.00 | 54 | 1015.5 |
| 20260906182016 | 21 | 66 | 0.0 | 3.2 | 0.00 | 0.00 | 0.00 | 52 | 1015.7 |
| 20260906181016 | 21 | 273 | 1.6 | 3.2 | 0.00 | 0.00 | 0.00 | 53 | 1015.9 |
| 20260906180017 | 21 | 273 | 1.6 | 3.2 | 0.00 | 0.00 | 0.00 | 53 | 1016.1 |
| 20260906175015 | 21 | 271 | 1.6 | 4.8 | 0.00 | 0.00 | 0.00 | 54 | 1016.3 |
| 20260906174017 | 20 | 239 | 1.6 | 1.6 | 0.00 | 0.00 | 0.00 | 57 | 1016.5 |
| 20260906173016 | 19 | 119 | 0.0 | 1.6 | 0.00 | 0.00 | 0.00 | 55 | 1016.8 |
| 20260906172015 | 19 | 273 | 1.6 | 4.8 | 0.00 | 0.00 | 0.00 | 56 | 1017.0 |
| 20260906171016 | 18 | 0.0 | 1.6 | 0.00 | 0.00 | 0.00 | 57 | 1017.1 | |
| 20260906170016 | 18 | 48 | 3.2 | 4.8 | 0.00 | 0.00 | 0.00 | 56 | 1017.3 |
| 20260906165057 | 18 | 52 | 1.6 | 4.8 | 0.00 | 0.00 | 0.00 | 57 | 1017.4 |
| 20260906164037 | 17 | 278 | 1.6 | 4.8 | 0.00 | 0.00 | 0.00 | 57 | 1017.7 |
| 20260906163017 | 17 | 0.0 | 1.6 | 0.00 | 0.00 | 0.00 | 58 | 1017.9 | |
| 20260906162018 | 17 | 270 | 0.0 | 1.6 | 0.00 | 0.00 | 0.00 | 60 | 1018.1 |
| 20260906161017 | 17 | 111 | 0.0 | 1.6 | 0.00 | 0.00 | 0.00 | 59 | 1018.4 |
| 20260906160017 | 17 | 131 | 1.6 | 3.2 | 0.00 | 0.00 | 0.00 | 60 | 1018.4 |
| 20260906155017 | 17 | 273 | 0.0 | 1.6 | 0.00 | 0.00 | 0.00 | 62 | 1018.3 |
| 20260906154037 | 16 | 229 | 0.0 | 1.6 | 0.00 | 0.00 | 0.00 | 63 | 1018.5 |
| 20260906153018 | 16 | 274 | 1.6 | 1.6 | 0.00 | 0.00 | 0.00 | 64 | 1018.6 |
| 20260906152017 | 15 | 268 | 1.6 | 8.0 | 0.00 | 0.00 | 0.00 | 64 | 1018.7 |
| 20260906151017 | 15 | 103 | 0.0 | 1.6 | 0.00 | 0.00 | 0.00 | 67 | 1018.7 |
| 20260906150018 | 14 | 102 | 0.0 | 1.6 | 0.00 | 0.00 | 0.00 | 70 | 1018.8 |
| 20260906145037 | 13 | 0.0 | 1.6 | 0.00 | 0.00 | 0.00 | 72 | 1018.9 | |
| 20260906144037 | 12 | 0.0 | 1.6 | 0.00 | 0.00 | 0.00 | 76 | 1019.0 | |
| 20260906143017 | 11 | 108 | 0.0 | 1.6 | 0.00 | 0.00 | 0.00 | 77 | 1018.9 |
| 20260906142137 | 11 | 0.0 | 1.6 | 0.00 | 0.00 | 0.00 | 78 | 1019.0 | |
| 20260906141122 | 11 | 0.0 | 0.0 | 0.00 | 0.00 | 0.00 | 79 | 1019.0 | |
| 20260906140017 | 10 | 58 | 1.6 | 3.2 | 0.00 | 0.00 | 0.00 | 79 | 1019.1 |
| 20260906135037 | 10 | 77 | 0.0 | 1.6 | 0.00 | 0.00 | 0.00 | 80 | 1018.9 |
| 20260906134019 | 10 | 0.0 | 0.0 | 0.00 | 0.00 | 0.00 | 79 | 1018.9 | |
| 20260906133017 | 10 | 72 | 0.0 | 1.6 | 0.00 | 0.00 | 0.00 | 80 | 1018.9 |
| 20260906132017 | 10 | 0.0 | 0.0 | 0.00 | 0.00 | 0.00 | 81 | 1019.0 | |
| 20260906131017 | 10 | 0.0 | 0.0 | 0.00 | 0.00 | 0.00 | 81 | 1018.9 | |
| 20260906130017 | 10 | 0.0 | 0.0 | 0.00 | 0.00 | 0.00 | 81 | 1019.0 | |
| 20260906125017 | 10 | 54 | 0.0 | 1.6 | 0.00 | 0.00 | 0.00 | 82 | 1019.0 |
| 20260906124037 | 10 | 0.0 | 0.0 | 0.00 | 0.00 | 0.00 | 82 | 1019.0 | |
| 20260906123017 | 10 | 0.0 | 1.6 | 0.00 | 0.00 | 0.00 | 81 | 1019.0 | |
| 20260906122017 | 11 | 0.0 | 0.0 | 0.00 | 0.00 | 0.00 | 79 | 1019.0 | |
| 20260906121017 | 11 | 0.0 | 0.0 | 0.00 | 0.00 | 0.00 | 77 | 1018.8 | |
| 20260906120017 | 11 | 0.0 | 1.6 | 0.00 | 0.00 | 0.00 | 76 | 1018.9 | |
| 20260906115017 | 12 | 262 | 0.0 | 1.6 | 0.00 | 0.00 | 0.00 | 74 | 1018.1 |
| 20260906114018 | 12 | 46 | 0.0 | 3.2 | 0.00 | 0.00 | 0.00 | 73 | 1017.8 |
| 20260906113017 | 12 | 55 | 4.8 | 9.7 | 0.00 | 0.00 | 0.00 | 70 | 1017.4 |
| 20260906112017 | 14 | 53 | 1.6 | 9.7 | 0.00 | 0.00 | 0.00 | 63 | 1016.9 |
| 20260906111017 | 16 | 354 | 0.0 | 3.2 | 0.00 | 0.00 | 0.00 | 56 | 1016.5 |
| 20260906110016 | 15 | 49 | 4.8 | 14.5 | 0.00 | 0.00 | 0.00 | 56 | 1016.2 |
| 20260906105018 | 15 | 54 | 8.0 | 22.5 | 0.00 | 0.00 | 0.00 | 56 | 1016.1 |
| 20260906104017 | 15 | 190 | 0.0 | 14.5 | 0.00 | 0.00 | 0.00 | 56 | 1015.9 |
| 20260906103017 | 15 | 74 | 6.4 | 11.3 | 0.00 | 0.00 | 0.00 | 56 | 1015.8 |
| 20260906102057 | 15 | 82 | 6.4 | 12.9 | 0.00 | 0.00 | 0.00 | 55 | 1015.7 |
| 20260906101017 | 15 | 65 | 4.8 | 12.9 | 0.00 | 0.00 | 0.00 | 55 | 1015.4 |
| 20260906100018 | 15 | 80 | 4.8 | 11.3 | 0.00 | 0.00 | 0.00 | 55 | 1015.4 |
| 20260906095017 | 15 | 88 | 8.0 | 17.7 | 0.00 | 0.00 | 0.00 | 55 | 1015.5 |
| 20260906094017 | 15 | 137 | 4.8 | 16.1 | 0.00 | 0.00 | 0.00 | 55 | 1015.6 |
| 20260906093036 | 15 | 55 | 3.2 | 9.7 | 0.00 | 0.00 | 0.00 | 54 | 1015.8 |
| 20260906092017 | 15 | 29 | 4.8 | 11.3 | 0.00 | 0.00 | 0.00 | 54 | 1015.8 |
| 20260906091037 | 16 | 96 | 1.6 | 9.7 | 0.00 | 0.00 | 0.00 | 53 | 1015.9 |
| 20260906090017 | 16 | 35 | 6.4 | 11.3 | 0.00 | 0.00 | 0.00 | 54 | 1016.1 |
| 20260906085016 | 16 | 55 | 3.2 | 8.0 | 0.00 | 0.00 | 0.00 | 53 | 1016.1 |
| 20260906084017 | 16 | 51 | 1.6 | 9.7 | 0.00 | 0.00 | 0.00 | 52 | 1016.2 |
| 20260906083016 | 16 | 47 | 1.6 | 6.4 | 0.00 | 0.00 | 0.00 | 52 | 1016.2 |
| 20260906082016 | 16 | 340 | 1.6 | 6.4 | 0.00 | 0.00 | 0.00 | 52 | 1016.3 |
| 20260906081018 | 16 | 38 | 0.0 | 9.7 | 0.00 | 0.00 | 0.00 | 52 | 1016.3 |
| 20260906080017 | 16 | 78 | 4.8 | 12.9 | 0.00 | 0.00 | 0.00 | 51 | 1016.4 |
| 20260906075016 | 16 | 150 | 1.6 | 9.7 | 0.00 | 0.00 | 0.00 | 50 | 1016.5 |
| 20260906074017 | 16 | 298 | 0.0 | 8.0 | 0.00 | 0.00 | 0.00 | 50 | 1016.7 |
| 20260906073016 | 16 | 89 | 4.8 | 11.3 | 0.00 | 0.00 | 0.00 | 49 | 1016.7 |
| 20260906072018 | 17 | 66 | 3.2 | 6.4 | 0.00 | 0.00 | 0.00 | 49 | 1016.7 |
| 20260906071016 | 17 | 57 | 4.8 | 11.3 | 0.00 | 0.00 | 0.00 | 48 | 1016.8 |
| 20260906070018 | 17 | 53 | 6.4 | 12.9 | 0.00 | 0.00 | 0.00 | 47 | 1016.7 |
| 20260906065017 | 17 | 104 | 3.2 | 12.9 | 0.00 | 0.00 | 0.00 | 47 | 1016.8 |
| 20260906064017 | 17 | 64 | 4.8 | 8.0 | 0.00 | 0.00 | 0.00 | 47 | 1016.8 |
| 20260906063016 | 17 | 58 | 4.8 | 14.5 | 0.00 | 0.00 | 0.00 | 46 | 1016.9 |
| 20260906062016 | 17 | 101 | 1.6 | 11.3 | 0.00 | 0.00 | 0.00 | 45 | 1017.0 |
| 20260906061016 | 17 | 87 | 3.2 | 9.7 | 0.00 | 0.00 | 0.00 | 45 | 1016.8 |
| 20260906060016 | 17 | 63 | 3.2 | 6.4 | 0.00 | 0.00 | 0.00 | 45 | 1017.1 |
| 20260906055037 | 17 | 67 | 3.2 | 12.9 | 0.00 | 0.00 | 0.00 | 44 | 1017.1 |
| 20260906054016 | 17 | 43 | 1.6 | 6.4 | 0.00 | 0.00 | 0.00 | 44 | 1017.0 |
| 20260906053016 | 17 | 82 | 6.4 | 9.7 | 0.00 | 0.00 | 0.00 | 44 | 1017.1 |
| 20260906052017 | 17 | 67 | 3.2 | 6.4 | 0.00 | 0.00 | 0.00 | 44 | 1017.0 |
| 20260906051037 | 17 | 23 | 0.0 | 8.0 | 0.00 | 0.00 | 0.00 | 44 | 1017.1 |
| 20260906050016 | 18 | 8 | 1.6 | 4.8 | 0.00 | 0.00 | 0.00 | 42 | 1017.2 |
| 20260906045017 | 18 | 40 | 1.6 | 6.4 | 0.00 | 0.00 | 0.00 | 43 | 1017.1 |
| 20260906044037 | 18 | 88 | 3.2 | 9.7 | 0.00 | 0.00 | 0.00 | 43 | 1017.0 |
| 20260906043016 | 18 | 323 | 0.0 | 9.7 | 0.00 | 0.00 | 0.00 | 43 | 1017.0 |
| 20260906042016 | 19 | 71 | 1.6 | 6.4 | 0.00 | 0.00 | 0.00 | 42 | 1017.0 |
| 20260906041017 | 19 | 332 | 1.6 | 3.2 | 0.00 | 0.00 | 0.00 | 41 | 1016.8 |
| 20260906040017 | 19 | 21 | 3.2 | 9.7 | 0.00 | 0.00 | 0.00 | 40 | 1016.8 |
| 20260906035017 | 19 | 91 | 1.6 | 3.2 | 0.00 | 0.00 | 0.00 | 40 | 1016.7 |
| 20260906034017 | 19 | 91 | 3.2 | 6.4 | 0.00 | 0.00 | 0.00 | 39 | 1016.8 |
| 20260906033016 | 19 | 81 | 0.0 | 4.8 | 0.00 | 0.00 | 0.00 | 39 | 1016.8 |
| 20260906032016 | 19 | 88 | 0.0 | 6.4 | 0.00 | 0.00 | 0.00 | 39 | 1016.8 |
| 20260906031017 | 20 | 52 | 1.6 | 6.4 | 0.00 | 0.00 | 0.00 | 38 | 1016.8 |
| 20260906030016 | 19 | 60 | 3.2 | 8.0 | 0.00 | 0.00 | 0.00 | 38 | 1016.5 |
| 20260906025017 | 20 | 71 | 1.6 | 9.7 | 0.00 | 0.00 | 0.00 | 38 | 1016.3 |
| 20260906024016 | 20 | 108 | 0.0 | 3.2 | 0.00 | 0.00 | 0.00 | 37 | 1016.1 |
| 20260906023036 | 20 | 102 | 3.2 | 6.4 | 0.00 | 0.00 | 0.00 | 37 | 1015.9 |
| 20260906022016 | 20 | 128 | 1.6 | 3.2 | 0.00 | 0.00 | 0.00 | 37 | 1015.8 |
| 20260906021017 | 20 | 89 | 0.0 | 1.6 | 0.00 | 0.00 | 0.00 | 36 | 1015.6 |
| 20260906020016 | 21 | 136 | 1.6 | 9.7 | 0.00 | 0.00 | 0.00 | 35 | 1015.7 |
| 20260906015016 | 22 | 52 | 3.2 | 8.0 | 0.00 | 0.00 | 0.00 | 34 | 1015.6 |
| 20260906014017 | 22 | 117 | 3.2 | 9.7 | 0.00 | 0.00 | 0.00 | 33 | 1015.6 |
| 20260906013016 | 23 | 63 | 4.8 | 8.0 | 0.00 | 0.00 | 0.00 | 32 | 1015.6 |
| 20260906012016 | 23 | 32 | 1.6 | 8.0 | 0.00 | 0.00 | 0.00 | 32 | 1015.7 |
| 20260906011036 | 23 | 98 | 4.8 | 11.3 | 0.00 | 0.00 | 0.00 | 31 | 1015.6 |
| 20260906010021 | 24 | 71 | 3.2 | 11.3 | 0.00 | 0.00 | 0.00 | 31 | 1015.6 |
| 20260906005016 | 24 | 97 | 8.0 | 14.5 | 0.00 | 0.00 | 0.00 | 30 | 1015.5 |
| 20260906004016 | 25 | 89 | 6.4 | 11.3 | 0.00 | 0.00 | 0.00 | 31 | 1015.3 |
| 20260906003016 | 25 | 81 | 4.8 | 19.3 | 0.00 | 0.00 | 0.00 | 31 | 1015.4 |
| 20260906002016 | 25 | 58 | 8.0 | 20.9 | 0.00 | 0.00 | 0.00 | 30 | 1015.4 |
| 20260906001016 | 25 | 110 | 4.8 | 12.9 | 0.00 | 0.00 | 0.00 | 30 | 1015.5 |
| 20260906000016 | 26 | 95 | 4.8 | 11.3 | 0.00 | 0.00 | 0.00 | 31 | 1015.6 |
| 20260905235041 | 26 | 58 | 8.0 | 17.7 | 0.00 | 0.00 | 0.00 | 29 | 1015.6 |
| 20260905234016 | 26 | 16 | 1.6 | 11.3 | 0.00 | 0.00 | 0.00 | 30 | 1015.5 |
| 20260905233036 | 26 | 91 | 1.6 | 6.4 | 0.00 | 0.00 | 0.00 | 37 | 1015.5 |
| 20260905232016 | 26 | 273 | 0.0 | 1.6 | 0.00 | 0.00 | 0.00 | 39 | 1015.6 |
| 20260905231016 | 25 | 260 | 0.0 | 1.6 | 0.00 | 0.00 | 0.00 | 41 | 1015.6 |
| 20260905230016 | 24 | 268 | 1.6 | 4.8 | 0.00 | 0.00 | 0.00 | 45 | 1015.6 |